Time;durP1;ratioP1;P1;durP2;ratioP2;P2;SDS_P1;SDS_P2;PMS_P1;PMS_P2;Temp;Humidity;BMP_temperature;BMP_pressure;BME280_temperature;BME280_humidity;BME280_pressure;Samples;Min_cycle;Max_cycle;Signal;HPM_P1;HPM_P2
2022/12/17 13:06:43;;;;;;;7.40;3.88;;;;;;;18.90;50.42;101332.63;4974739;28;20058;-70
2022/12/17 13:09:17;;;;;;;9.40;3.45;;;;;;;18.89;50.50;101329.09;4975005;28;20046;-70
2022/12/17 13:11:53;;;;;;;6.07;3.47;;;;;;;18.90;50.07;101333.50;4975017;28;20061;-70
2022/12/17 13:14:32;;;;;;;5.15;3.08;;;;;;;18.90;50.13;101338.00;4975638;28;20046;-70
2022/12/17 13:17:14;;;;;;;5.50;2.88;;;;;;;18.90;50.04;101338.00;4975188;28;20050;-70
2022/12/17 13:19:55;;;;;;;8.43;3.45;;;;;;;18.90;50.09;101349.59;4974703;28;20055;-70
2022/12/17 13:22:22;;;;;;;7.53;4.35;;;;;;;18.91;49.71;101353.13;4975294;28;20055;-71
2022/12/17 13:24:54;;;;;;;5.90;3.97;;;;;;;18.89;49.89;101363.13;4973765;28;20057;-71
2022/12/17 13:27:33;;;;;;;5.32;3.20;;;;;;;18.90;50.02;101365.69;4975022;28;20110;-71
2022/12/17 13:30:35;;;;;;;5.38;3.22;;;;;;;18.91;50.05;101367.38;4973120;28;20061;-72
2022/12/17 13:33:22;;;;;;;6.47;3.15;;;;;;;18.92;50.21;101360.19;4949074;28;20065;-70
2022/12/17 13:36:14;;;;;;;6.00;3.13;;;;;;;18.92;49.97;101369.13;4993949;28;20046;-71
2022/12/17 13:38:44;;;;;;;6.75;3.90;;;;;;;18.92;50.02;101369.13;4994286;28;20047;-72
2022/12/17 13:41:18;;;;;;;4.97;3.53;;;;;;;18.90;48.93;101372.88;4994558;28;20057;-72
2022/12/17 13:44:20;;;;;;;6.10;3.38;;;;;;;18.90;50.16;101375.56;4994047;28;20069;-70
2022/12/17 13:46:49;;;;;;;5.55;3.20;;;;;;;18.89;50.02;101377.41;4933538;29;20059;-71
2022/12/17 13:49:27;;;;;;;5.60;3.20;;;;;;;18.92;49.85;101384.34;4933801;29;20047;-71
2022/12/17 13:52:22;;;;;;;8.27;3.55;;;;;;;18.91;50.08;101388.84;4934313;29;20226;-70
2022/12/17 13:54:50;;;;;;;6.05;3.63;;;;;;;18.92;50.01;101387.03;4934063;29;20047;-71
2022/12/17 13:57:23;;;;;;;7.47;3.15;;;;;;;18.93;50.10;101392.28;4933803;29;20064;-71
2022/12/17 13:59:58;;;;;;;6.75;3.67;;;;;;;18.93;49.97;101392.28;4934354;29;20455;-70
2022/12/17 14:02:27;;;;;;;3.90;3.17;;;;;;;18.94;49.94;101395.81;4934300;29;20558;-71
2022/12/17 14:04:56;;;;;;;7.63;3.38;;;;;;;18.93;50.01;101397.66;4933919;29;20075;-71
2022/12/17 14:07:28;;;;;;;5.18;3.15;;;;;;;18.94;50.22;101396.69;4934459;29;20491;-70
2022/12/17 14:09:56;;;;;;;5.88;3.20;;;;;;;18.95;50.09;101395.69;4933870;29;20080;-70
2022/12/17 14:12:25;;;;;;;8.57;3.50;;;;;;;18.96;49.82;101401.94;4933951;29;20060;-70
2022/12/17 14:15:07;;;;;;;4.93;2.95;;;;;;;18.95;50.19;101400.22;4932720;29;20056;-70
2022/12/17 14:17:36;;;;;;;6.97;3.25;;;;;;;18.96;55.62;101401.94;4914958;29;20064;-71
2022/12/17 14:20:12;;;;;;;4.63;3.00;;;;;;;18.93;58.56;101404.84;4914772;29;20048;-70
2022/12/17 14:22:43;;;;;;;5.50;3.15;;;;;;;18.89;58.55;101409.59;4930298;28;20066;-70
2022/12/17 14:25:20;;;;;;;3.67;2.85;;;;;;;18.87;58.75;101398.09;4974209;28;20050;-70
2022/12/17 14:27:55;;;;;;;6.82;2.75;;;;;;;18.85;59.28;101401.88;4974993;28;20054;-70
2022/12/17 14:30:32;;;;;;;6.70;3.03;;;;;;;18.86;59.54;101411.66;4974061;28;20486;-70
2022/12/17 14:32:59;;;;;;;5.75;3.50;;;;;;;18.82;59.55;101407.47;4982537;28;20038;-70
2022/12/17 14:35:30;;;;;;;5.50;3.33;;;;;;;18.82;59.95;101404.78;4993322;28;20047;-70
2022/12/17 14:37:58;;;;;;;5.63;3.08;;;;;;;18.81;59.72;101411.13;4991648;28;20058;-70
2022/12/17 14:40:25;;;;;;;5.93;2.70;;;;;;;18.80;60.54;101412.09;4993552;28;20050;-70
2022/12/17 14:42:58;;;;;;;6.35;2.90;;;;;;;18.78;59.71;101413.06;4993781;28;20042;-70
2022/12/17 14:45:27;;;;;;;4.43;2.92;;;;;;;18.78;60.49;101422.94;4992277;28;20057;-70
2022/12/17 14:48:00;;;;;;;5.78;3.10;;;;;;;18.78;60.35;101434.53;4993100;28;20402;-70
2022/12/17 14:50:33;;;;;;;6.13;3.10;;;;;;;18.77;60.21;101443.56;4993817;28;20046;-70
2022/12/17 14:53:21;;;;;;;5.15;3.33;;;;;;;18.76;60.13;101443.69;4993107;28;20059;-70
2022/12/17 14:55:56;;;;;;;5.28;2.75;;;;;;;18.76;60.04;101459.78;4993114;28;20046;-70
2022/12/17 14:58:25;;;;;;;8.93;2.75;;;;;;;18.75;59.48;101466.94;4993037;28;20058;-70
2022/12/17 15:01:02;;;;;;;7.28;2.88;;;;;;;18.75;60.05;101477.66;4996797;28;20054;-70
2022/12/17 15:03:38;;;;;;;4.90;2.70;;;;;;;18.74;60.35;101481.31;4996999;28;20497;-70
2022/12/17 15:06:08;;;;;;;3.95;2.63;;;;;;;18.75;60.45;101495.59;4996716;28;20053;-71
2022/12/17 15:08:40;;;;;;;4.97;2.35;;;;;;;18.74;60.33;101500.09;4996608;28;20038;-70
2022/12/17 15:11:11;;;;;;;7.07;2.85;;;;;;;18.75;60.10;101495.59;4996578;28;20054;-71
2022/12/17 15:13:39;;;;;;;3.95;2.50;;;;;;;18.74;60.46;101497.41;4996622;28;20394;-70
2022/12/17 15:16:07;;;;;;;5.75;2.75;;;;;;;18.75;60.25;101500.94;4985119;28;20055;-70
2022/12/17 15:18:34;;;;;;;6.25;2.78;;;;;;;18.75;60.49;101509.00;4977211;28;20047;-70
2022/12/17 15:21:03;;;;;;;4.53;2.53;;;;;;;18.73;60.67;101514.47;4976386;28;20054;-70
2022/12/17 15:23:30;;;;;;;6.80;3.33;;;;;;;18.73;60.40;101517.16;4976597;28;20050;-70
2022/12/17 15:25:58;;;;;;;6.43;3.10;;;;;;;18.72;60.61;101519.97;4976905;28;20054;-69
2022/12/17 15:28:25;;;;;;;6.75;3.15;;;;;;;18.72;60.58;101517.28;4976456;28;20066;-70
2022/12/17 15:30:52;;;;;;;5.45;2.88;;;;;;;18.71;60.63;101524.44;4976412;28;20051;-70
2022/12/17 15:33:20;;;;;;;6.47;3.50;;;;;;;18.72;60.94;101533.38;4978747;28;20050;-70
2022/12/17 15:35:47;;;;;;;5.75;3.38;;;;;;;18.71;61.05;101532.50;4994768;28;20540;-69
2022/12/17 15:38:15;;;;;;;5.85;3.05;;;;;;;18.71;61.07;101534.31;4995884;28;20047;-70
2022/12/17 15:40:42;;;;;;;5.03;3.10;;;;;;;18.71;60.87;101547.72;4995763;28;20050;-70
2022/12/17 15:43:11;;;;;;;8.63;3.10;;;;;;;18.70;61.12;101541.53;4994769;28;20046;-70
2022/12/17 15:45:47;;;;;;;5.85;3.20;;;;;;;18.70;61.08;101543.34;4995573;28;20049;-70
2022/12/17 15:48:23;;;;;;;5.75;3.53;;;;;;;18.70;61.07;101551.38;4994160;28;20061;-70
2022/12/17 15:50:52;;;;;;;4.93;3.10;;;;;;;18.70;61.23;101546.03;4996168;28;20047;-70
2022/12/17 15:53:19;;;;;;;4.78;3.30;;;;;;;18.70;61.14;101559.44;4995493;28;20049;-70
2022/12/17 15:55:47;;;;;;;5.80;3.20;;;;;;;18.70;61.39;101562.13;4995378;28;20378;-70
2022/12/17 15:58:15;;;;;;;5.45;3.13;;;;;;;18.69;61.22;101560.38;4995342;28;20065;-70
2022/12/17 16:00:42;;;;;;;4.47;3.15;;;;;;;18.69;61.25;101566.59;4995447;28;20413;-70
2022/12/17 16:03:09;;;;;;;8.10;3.25;;;;;;;18.68;61.29;101570.25;4995336;28;20053;-70
2022/12/17 16:05:37;;;;;;;6.82;3.28;;;;;;;18.69;61.44;101571.09;4995674;28;20489;-70
2022/12/17 16:08:04;;;;;;;6.35;3.80;;;;;;;18.68;61.23;101578.31;4995196;28;20097;-70
2022/12/17 16:10:32;;;;;;;5.82;3.70;;;;;;;18.69;61.15;101577.31;4994935;28;20056;-70
2022/12/17 16:12:59;;;;;;;5.07;3.30;;;;;;;18.69;61.06;101579.16;4995262;28;20049;-70
2022/12/17 16:15:26;;;;;;;3.85;3.22;;;;;;;18.69;61.22;101579.16;4987695;28;20047;-70
2022/12/17 16:17:54;;;;;;;8.27;3.38;;;;;;;18.69;61.26;101581.84;4975783;28;20043;-70
2022/12/17 16:20:22;;;;;;;4.47;3.20;;;;;;;18.68;60.94;101591.72;4974766;28;20058;-70
2022/12/17 16:22:49;;;;;;;4.13;3.30;;;;;;;18.68;61.14;101593.53;4975646;28;20055;-69
2022/12/17 16:25:17;;;;;;;5.78;3.42;;;;;;;18.68;61.03;101596.22;4975424;28;20046;-70
2022/12/17 16:27:45;;;;;;;5.15;3.70;;;;;;;18.68;61.29;101602.44;4975861;28;20054;-69
2022/12/17 16:30:13;;;;;;;5.05;3.22;;;;;;;18.68;61.17;101605.13;4975278;28;20483;-70
2022/12/17 16:32:40;;;;;;;5.38;3.60;;;;;;;18.67;61.22;101605.22;4975326;28;20055;-70
2022/12/17 16:35:08;;;;;;;5.07;3.33;;;;;;;18.69;61.17;101608.66;4984931;28;20039;-70
2022/12/17 16:37:35;;;;;;;4.88;2.95;;;;;;;18.68;61.21;101612.31;4994117;28;20409;-70
2022/12/17 16:40:03;;;;;;;5.20;3.25;;;;;;;18.68;61.10;101615.00;4993936;28;20038;-70
2022/12/17 16:42:30;;;;;;;6.68;3.33;;;;;;;18.68;61.17;101623.03;4994805;28;20069;-70
2022/12/17 16:44:57;;;;;;;4.15;2.97;;;;;;;18.68;61.35;101623.03;4994425;28;20422;-69
2022/12/17 16:47:25;;;;;;;5.32;3.60;;;;;;;18.67;61.32;101624.84;4995393;28;20053;-70
2022/12/17 16:49:52;;;;;;;4.90;3.15;;;;;;;18.67;61.36;101632.03;4994516;28;20042;-70
2022/12/17 16:52:19;;;;;;;4.63;3.67;;;;;;;18.67;61.16;101637.41;4994558;28;20047;-70
2022/12/17 16:54:47;;;;;;;5.20;3.30;;;;;;;18.67;61.48;101646.28;4994746;28;20047;-70
2022/12/17 16:57:14;;;;;;;4.50;3.65;;;;;;;18.68;61.48;101655.22;4994218;28;20126;-70
2022/12/17 16:59:41;;;;;;;5.05;3.70;;;;;;;18.66;61.28;101655.31;4994247;28;20046;-70
2022/12/17 17:02:13;;;;;;;5.90;3.72;;;;;;;18.67;61.20;101661.53;4994806;28;20050;-70
2022/12/17 17:04:41;;;;;;;5.65;3.53;;;;;;;18.67;61.28;101667.75;4994355;28;20046;-69
2022/12/17 17:07:08;;;;;;;4.90;3.42;;;;;;;18.66;61.23;101668.72;4994143;28;20042;-69
2022/12/17 17:09:36;;;;;;;4.22;3.35;;;;;;;18.66;61.29;101684.81;4994782;28;20840;-70
2022/12/17 17:12:04;;;;;;;4.88;3.35;;;;;;;18.66;61.32;101674.09;4994102;28;20046;-70
2022/12/17 17:14:31;;;;;;;6.30;3.78;;;;;;;18.67;61.44;101683.00;4994045;28;20042;-70
2022/12/17 17:16:58;;;;;;;4.72;3.10;;;;;;;18.66;61.30;101687.50;4975966;28;20069;-70
2022/12/17 17:19:26;;;;;;;4.80;3.50;;;;;;;18.67;61.22;101685.66;4974781;28;20053;-70
2022/12/17 17:21:53;;;;;;;4.55;3.42;;;;;;;18.67;61.17;101694.56;4974125;28;20042;-70
2022/12/17 17:24:24;;;;;;;5.55;3.50;;;;;;;18.67;61.39;101693.72;4975029;28;20054;-70
2022/12/17 17:26:53;;;;;;;6.32;3.78;;;;;;;18.67;61.34;101696.41;4974899;28;20053;-69
2022/12/17 17:29:20;;;;;;;5.57;3.47;;;;;;;18.67;60.86;101696.41;4974407;28;20042;-69
2022/12/17 17:31:47;;;;;;;5.57;3.40;;;;;;;18.65;61.11;101704.56;4974657;28;20050;-70
2022/12/17 17:34:35;;;;;;;4.65;3.28;;;;;;;18.65;61.11;101709.94;4974663;28;20486;-70
2022/12/17 17:37:02;;;;;;;5.13;3.78;;;;;;;18.65;61.06;101707.25;4990243;28;20042;-70
2022/12/17 17:39:31;;;;;;;4.43;3.70;;;;;;;18.66;61.18;101716.16;4993816;28;20046;-70
2022/12/17 17:42:00;;;;;;;6.97;4.25;;;;;;;18.66;61.16;101721.50;4994186;28;20042;-70
2022/12/17 17:44:27;;;;;;;4.93;3.33;;;;;;;18.65;60.71;101719.81;4993741;28;20098;-69
2022/12/17 17:46:54;;;;;;;7.20;4.15;;;;;;;18.65;60.73;101728.72;4993646;28;20053;-69
2022/12/17 17:49:22;;;;;;;5.45;4.35;;;;;;;18.65;60.63;101731.38;4994059;28;20050;-69
2022/12/17 17:51:49;;;;;;;4.82;3.83;;;;;;;18.64;60.72;101727.00;4993686;28;20045;-69
2022/12/17 17:54:38;;;;;;;5.35;3.95;;;;;;;18.64;60.72;101732.34;4993493;28;20059;-70
2022/12/17 17:57:06;;;;;;;5.50;3.92;;;;;;;18.65;60.48;101749.31;4993573;28;20269;-70
2022/12/17 17:59:34;;;;;;;5.50;3.75;;;;;;;18.65;60.51;101752.84;4994092;28;20042;-70
2022/12/17 18:02:02;;;;;;;6.22;4.00;;;;;;;18.65;60.39;101762.72;4993744;28;20069;-70
2022/12/17 18:04:30;;;;;;;5.70;4.22;;;;;;;18.65;60.32;101768.09;4993530;28;20054;-69
2022/12/17 18:06:58;;;;;;;5.15;4.38;;;;;;;18.64;60.43;101769.91;4993529;28;20053;-69
2022/12/17 18:09:45;;;;;;;7.38;4.28;;;;;;;18.65;60.37;101781.50;4993782;28;20054;-69
2022/12/17 18:14:58;;;;;;;6.13;4.30;;;;;;;18.65;60.36;101787.72;4991299;28;20046;-70
2022/12/17 18:17:49;;;;;;;6.50;4.50;;;;;;;18.63;60.29;101786.94;4974033;28;20050;-70
2022/12/17 18:20:16;;;;;;;5.35;4.15;;;;;;;18.64;60.48;101791.38;4974539;28;20047;-69
2022/12/17 18:22:44;;;;;;;6.40;4.60;;;;;;;18.63;60.14;101800.34;4973923;28;20399;-70
2022/12/17 18:25:14;;;;;;;5.60;4.45;;;;;;;18.64;60.56;101796.72;4973718;28;20058;-69
2022/12/17 18:27:43;;;;;;;6.25;5.00;;;;;;;18.64;60.36;101804.78;4972860;28;20054;-70
2022/12/17 18:30:10;;;;;;;8.18;5.30;;;;;;;18.64;59.82;101793.19;4973820;28;20043;-70
2022/12/17 18:32:38;;;;;;;4.88;4.25;;;;;;;18.63;59.84;101808.41;4975773;28;20054;-69
2022/12/17 18:35:06;;;;;;;5.72;4.90;;;;;;;18.63;60.17;101811.06;4978073;28;20058;-70
2022/12/17 18:37:33;;;;;;;7.32;4.80;;;;;;;18.63;59.69;101813.75;4990102;28;20050;-70
2022/12/17 18:40:01;;;;;;;7.22;4.50;;;;;;;18.64;59.87;101825.38;4996527;28;20042;-70
2022/12/17 18:45:14;;;;;;;5.95;5.22;;;;;;;18.63;59.34;101835.22;4997130;28;20046;-69
2022/12/17 18:47:43;;;;;;;6.20;4.88;;;;;;;18.63;59.72;101835.22;4996714;28;20405;-69
2022/12/17 18:50:11;;;;;;;6.20;4.95;;;;;;;18.64;59.84;101849.50;4996895;28;20046;-69
2022/12/17 18:52:40;;;;;;;5.93;4.88;;;;;;;18.63;59.85;101850.44;4997124;28;20045;-70
2022/12/17 18:55:07;;;;;;;5.22;4.65;;;;;;;18.63;59.98;101850.44;4996549;28;20050;-70
2022/12/17 18:57:34;;;;;;;5.32;4.55;;;;;;;18.62;59.53;101846.91;4996462;28;20054;-70
2022/12/17 19:00:03;;;;;;;6.65;5.15;;;;;;;18.62;59.86;101849.59;4995415;28;20050;-70
2022/12/17 19:02:30;;;;;;;5.53;4.95;;;;;;;18.63;59.81;101851.31;4996621;28;20042;-70
2022/12/17 19:04:58;;;;;;;7.93;6.00;;;;;;;18.62;59.30;101854.97;4996449;28;20062;-69
2022/12/17 19:07:25;;;;;;;6.40;4.80;;;;;;;18.62;59.25;101857.63;4996802;28;20050;-70
2022/12/17 19:09:52;;;;;;;6.40;5.40;;;;;;;18.63;59.31;101861.19;4996364;28;20054;-69
2022/12/17 19:12:20;;;;;;;6.95;5.40;;;;;;;18.62;59.04;101860.31;4996333;28;20039;-69
2022/12/17 19:14:47;;;;;;;6.10;5.22;;;;;;;18.62;59.35;101864.81;4995858;28;20046;-69
2022/12/17 19:17:14;;;;;;;6.47;5.38;;;;;;;18.61;59.53;101863.13;4976821;28;20046;-70
2022/12/17 19:19:41;;;;;;;6.13;5.00;;;;;;;18.61;59.44;101872.03;4977175;28;20494;-70
2022/12/17 19:22:09;;;;;;;7.63;5.57;;;;;;;18.62;59.51;101871.06;4976643;28;20397;-69
2022/12/17 19:24:36;;;;;;;6.60;4.93;;;;;;;18.61;59.10;101873.84;4976777;28;20043;-70
2022/12/17 19:27:03;;;;;;;7.28;5.60;;;;;;;18.61;59.39;101874.69;4976987;28;20057;-70
2022/12/17 19:29:31;;;;;;;5.88;5.28;;;;;;;18.62;59.15;101870.19;4976687;28;20050;-70
2022/12/17 19:31:58;;;;;;;8.27;5.40;;;;;;;18.61;58.78;101880.06;4976782;28;20046;-70
2022/12/17 19:34:26;;;;;;;6.55;5.70;;;;;;;18.61;58.76;101881.91;4976626;28;20063;-70
2022/12/17 19:36:53;;;;;;;7.70;5.45;;;;;;;18.61;58.97;101892.63;4976778;28;20043;-69
2022/12/17 19:39:21;;;;;;;7.78;6.15;;;;;;;18.60;58.94;101897.13;4994497;28;20038;-70
2022/12/17 19:41:49;;;;;;;7.30;5.95;;;;;;;18.61;58.64;101904.19;4995951;28;20049;-70
2022/12/17 19:44:19;;;;;;;8.00;6.53;;;;;;;18.60;58.70;101907.84;4994955;28;20057;-70
2022/12/17 19:46:46;;;;;;;7.55;5.50;;;;;;;18.61;59.04;101909.56;4996248;28;20057;-70
2022/12/17 19:49:15;;;;;;;7.28;5.97;;;;;;;18.61;59.21;101914.94;4995785;28;20046;-70
2022/12/17 19:51:43;;;;;;;6.85;5.70;;;;;;;18.62;58.63;101923.84;4994429;28;20058;-69
2022/12/17 19:54:13;;;;;;;8.63;6.50;;;;;;;18.61;58.41;101922.97;4995578;28;20054;-70
2022/12/17 19:56:43;;;;;;;7.38;6.30;;;;;;;18.61;58.28;101927.50;4995830;28;20486;-70
2022/12/17 19:59:11;;;;;;;7.72;5.65;;;;;;;18.61;59.04;101933.72;4995594;28;20521;-70
2022/12/17 20:01:44;;;;;;;7.50;6.15;;;;;;;18.61;58.09;101938.22;4995484;28;20061;-71
2022/12/17 20:04:12;;;;;;;;;;;;;;;18.60;58.40;101936.50;4996193;28;20050;-70
2022/12/17 20:06:41;;;;;;;8.13;6.10;;;;;;;18.60;58.48;101945.41;4995148;28;20389;-70
2022/12/17 20:09:09;;;;;;;7.30;6.05;;;;;;;18.61;58.20;101941.75;4995101;28;20494;-69
2022/12/17 20:11:37;;;;;;;7.32;6.45;;;;;;;18.60;58.35;101942.72;4995858;28;20046;-70
2022/12/17 20:14:14;;;;;;;7.63;6.60;;;;;;;18.59;58.41;101951.69;4995556;28;20385;-70
2022/12/17 20:16:50;;;;;;;7.78;5.97;;;;;;;18.59;57.86;101957.06;4978830;28;20081;-70
2022/12/17 20:19:26;;;;;;;9.52;7.05;;;;;;;18.60;58.06;101960.63;4975799;28;20051;-69
2022/12/17 20:21:54;;;;;;;8.60;6.70;;;;;;;18.59;57.61;101966.94;4976061;28;20042;-70
2022/12/17 20:24:21;;;;;;;7.30;6.38;;;;;;;18.59;57.93;101965.13;4975753;28;20050;-69
2022/12/17 20:26:57;;;;;;;7.43;5.90;;;;;;;18.58;58.37;101966.06;4975541;28;20492;-70
2022/12/17 20:29:26;;;;;;;7.85;6.55;;;;;;;18.58;57.88;101971.44;4975486;28;20055;-70
2022/12/17 20:31:54;;;;;;;7.18;6.47;;;;;;;18.59;58.02;101973.16;4975825;28;20042;-70
2022/12/17 20:34:23;;;;;;;7.93;6.70;;;;;;;18.59;57.90;101977.66;4975710;28;20046;-69
2022/12/17 20:36:51;;;;;;;7.25;6.45;;;;;;;18.59;57.77;101983.03;4975459;28;20047;-69
2022/12/17 20:39:19;;;;;;;9.23;7.28;;;;;;;18.58;57.67;101984.84;4985640;28;20046;-69
2022/12/17 20:41:53;;;;;;;8.23;6.78;;;;;;;18.59;57.88;101988.41;4993947;28;20504;-69
2022/12/17 20:44:20;;;;;;;6.82;6.13;;;;;;;18.59;57.64;101999.13;4995248;28;20046;-69
2022/12/17 20:46:47;;;;;;;8.50;6.68;;;;;;;18.57;58.00;101991.19;4994497;28;20565;-70
2022/12/17 20:49:15;;;;;;;9.30;6.70;;;;;;;18.58;57.77;101995.59;4994592;28;20049;-70
2022/12/17 20:51:42;;;;;;;7.88;7.07;;;;;;;18.59;57.77;101997.28;4994657;28;20505;-69
2022/12/17 20:54:10;;;;;;;8.35;7.20;;;;;;;18.58;57.77;101990.22;4994444;28;20061;-70
2022/12/17 20:56:38;;;;;;;8.60;6.68;;;;;;;18.58;57.89;101992.91;4993862;28;20050;-69
2022/12/17 20:59:08;;;;;;;8.00;7.20;;;;;;;18.58;57.64;102000.09;4993407;28;20050;-70
2022/12/17 21:01:36;;;;;;;7.18;6.32;;;;;;;18.57;57.35;102007.28;4994329;28;20042;-70
2022/12/17 21:04:06;;;;;;;8.63;6.82;;;;;;;18.57;57.11;102007.28;4994263;28;20051;-69
2022/12/17 21:06:44;;;;;;;8.15;7.32;;;;;;;18.57;57.49;102007.28;4994442;28;20050;-70
2022/12/17 21:09:14;;;;;;;8.35;6.90;;;;;;;18.58;57.15;102013.50;4994112;28;20050;-69
2022/12/17 21:11:41;;;;;;;9.02;7.25;;;;;;;18.57;57.19;102009.97;4994187;28;20146;-69
2022/12/17 21:14:13;;;;;;;7.57;6.75;;;;;;;18.58;56.98;102024.22;4994172;28;20478;-69
2022/12/17 21:16:41;;;;;;;8.52;6.47;;;;;;;18.59;57.43;102017.91;4978560;28;20050;-69
2022/12/17 21:19:12;;;;;;;7.05;6.32;;;;;;;18.58;57.34;102027.75;4974491;28;20043;-69
2022/12/17 21:21:40;;;;;;;8.05;6.80;;;;;;;18.59;57.59;102031.31;4974639;28;20434;-69
2022/12/17 21:24:09;;;;;;;8.05;6.50;;;;;;;18.58;56.95;102029.59;4974782;28;20053;-69
2022/12/17 21:26:39;;;;;;;7.07;5.88;;;;;;;18.58;57.21;102030.44;4974885;28;20073;-69
2022/12/17 21:29:08;;;;;;;9.25;7.30;;;;;;;18.59;57.32;102042.03;4975083;28;20047;-69
2022/12/17 21:31:41;;;;;;;7.55;6.22;;;;;;;18.59;57.62;102042.88;4974428;28;20414;-70
2022/12/17 21:34:16;;;;;;;;;;;;;;;18.59;56.73;102047.41;4974331;28;20053;-69
2022/12/17 21:36:43;;;;;;;8.40;6.47;;;;;;;18.59;56.58;102050.06;4974860;28;19922;-69
2022/12/17 21:39:12;;;;;;;7.97;6.97;;;;;;;18.58;56.44;102059.94;4976658;28;20042;-70
2022/12/17 21:41:41;;;;;;;7.22;6.30;;;;;;;18.58;57.17;102062.63;4991028;28;20061;-69
2022/12/17 21:44:12;;;;;;;8.05;6.88;;;;;;;18.59;56.55;102067.03;4994072;28;20061;-70
2022/12/17 21:46:42;;;;;;;8.18;6.22;;;;;;;18.58;56.79;102062.63;4993516;28;20046;-69
2022/12/17 21:49:16;;;;;;;7.43;6.60;;;;;;;18.59;56.81;102071.53;4993756;28;20046;-69
2022/12/17 21:51:44;;;;;;;9.20;6.90;;;;;;;18.59;56.64;102083.13;5008593;28;20051;-69
2022/12/17 21:54:11;;;;;;;7.15;6.05;;;;;;;18.58;56.32;102078.72;4994108;28;20046;-70
2022/12/17 21:56:46;;;;;;;8.48;7.32;;;;;;;18.58;56.14;102081.41;4991810;28;20054;-70
2022/12/17 21:59:14;;;;;;;8.27;7.03;;;;;;;18.58;55.98;102088.59;4993497;28;20053;-70
2022/12/17 22:01:41;;;;;;;8.10;6.63;;;;;;;18.58;56.01;102100.19;4993891;28;20402;-70
2022/12/17 22:04:09;;;;;;;7.97;6.85;;;;;;;18.57;56.02;102095.78;4993487;28;20046;-69
2022/12/17 22:06:37;;;;;;;8.00;6.68;;;;;;;18.58;55.62;102102.00;4994052;28;20043;-70
2022/12/17 22:09:15;;;;;;;8.40;6.03;;;;;;;18.58;55.57;102108.22;4997674;28;20043;-70
2022/12/17 22:14:46;;;;;;;7.97;6.40;;;;;;;18.58;55.85;102123.47;4996791;28;20049;-70
2022/12/17 22:17:13;;;;;;;7.70;6.07;;;;;;;18.58;55.50;102112.72;4977756;28;20046;-70
2022/12/17 22:19:40;;;;;;;9.10;6.65;;;;;;;18.58;56.03;102123.47;4978282;28;20058;-70
2022/12/17 22:22:08;;;;;;;8.50;6.28;;;;;;;18.58;55.53;102127.00;4977281;28;20062;-69
2022/12/17 22:24:35;;;;;;;8.77;6.78;;;;;;;18.58;55.39;102124.31;4977163;28;20050;-69
2022/12/17 22:27:03;;;;;;;7.78;6.35;;;;;;;18.59;55.75;102131.41;4975841;28;20043;-70
2022/12/17 22:35:08;;;;;;;8.30;6.53;;;;;;;18.59;54.59;102134.06;4958207;29;20487;-70
2022/12/17 22:37:55;;;;;;;8.38;6.20;;;;;;;18.59;54.11;102123.34;4958760;28;20043;-70
2022/12/17 22:40:43;;;;;;;8.18;6.30;;;;;;;18.60;54.65;102121.56;4981106;28;20054;-70
2022/12/17 22:43:30;;;;;;;7.75;5.85;;;;;;;18.61;54.39;102131.31;4997023;28;20382;-70
2022/12/17 22:46:18;;;;;;;9.77;6.35;;;;;;;18.62;54.36;102138.41;4997691;28;20047;-70
2022/12/17 22:48:45;;;;;;;8.35;5.75;;;;;;;18.62;54.57;102141.94;4995953;28;20513;-70
2022/12/17 22:51:13;;;;;;;8.10;5.95;;;;;;;18.62;54.07;102139.25;4997466;28;20054;-70
2022/12/17 22:53:46;;;;;;;7.32;6.47;;;;;;;18.63;54.29;102148.16;4997199;28;20046;-69
2022/12/17 22:56:14;;;;;;;10.07;6.43;;;;;;;18.63;54.22;102154.38;4996108;28;20057;-70
2022/12/17 22:59:01;;;;;;;7.65;6.38;;;;;;;18.63;54.28;102154.38;4996776;28;20065;-70
2022/12/17 23:01:29;;;;;;;7.70;5.63;;;;;;;18.64;53.96;102158.81;4996809;28;20046;-69
2022/12/17 23:03:58;;;;;;;7.70;6.18;;;;;;;18.65;54.02;102160.53;4997271;28;20061;-70
2022/12/17 23:06:26;;;;;;;7.63;5.93;;;;;;;18.65;54.39;102162.34;4996899;28;20049;-70
2022/12/17 23:08:54;;;;;;;7.18;5.65;;;;;;;18.65;54.63;102168.59;4996903;28;20057;-70
2022/12/17 23:11:24;;;;;;;7.95;5.78;;;;;;;18.66;54.04;102169.44;4994391;28;20051;-70
2022/12/17 23:13:53;;;;;;;7.07;5.15;;;;;;;18.67;53.96;102166.66;4978254;28;20043;-70
2022/12/17 23:16:20;;;;;;;7.28;5.72;;;;;;;18.66;54.12;102167.63;4977169;28;20422;-70
2022/12/17 23:18:49;;;;;;;6.15;5.40;;;;;;;18.66;54.12;102170.31;4974511;28;20051;-70
2022/12/17 23:21:22;;;;;;;8.48;5.57;;;;;;;18.67;53.45;102169.34;4976642;28;20038;-69
2022/12/17 23:23:52;;;;;;;6.53;5.03;;;;;;;18.67;53.74;102172.00;4976071;28;20039;-69
2022/12/17 23:26:29;;;;;;;9.98;5.18;;;;;;;18.67;54.15;102179.19;4995773;28;20043;-69
2022/12/17 23:29:00;;;;;;;6.53;4.68;;;;;;;18.68;54.24;102171.09;4977165;28;20046;-69
2022/12/17 23:31:32;;;;;;;7.28;5.15;;;;;;;18.69;54.55;102178.16;4976973;28;20053;-70
2022/12/17 23:34:00;;;;;;;7.13;5.87;;;;;;;18.69;55.33;102178.16;4976758;28;20047;-70
2022/12/17 23:36:28;;;;;;;7.93;4.88;;;;;;;18.70;55.89;102182.59;4976668;28;20054;-69
2022/12/17 23:38:56;;;;;;;5.93;4.82;;;;;;;18.71;54.93;102187.00;4976659;28;20065;-69
2022/12/17 23:41:26;;;;;;;5.82;4.70;;;;;;;18.73;54.20;102198.50;4979022;28;20045;-70
2022/12/17 23:43:55;;;;;;;6.07;4.68;;;;;;;18.73;54.08;102198.50;4986501;28;20058;-69
2022/12/17 23:46:24;;;;;;;6.47;4.82;;;;;;;18.75;53.44;102206.44;4976247;28;20050;-69
2022/12/17 23:48:51;;;;;;;6.88;5.07;;;;;;;18.75;53.43;102198.41;4976345;28;20064;-69
2022/12/17 23:51:21;;;;;;;5.43;4.20;;;;;;;18.75;53.35;102204.63;4976849;28;20042;-69
2022/12/17 23:53:49;;;;;;;7.00;4.72;;;;;;;18.76;53.28;102202.84;4976294;28;20043;-69
2022/12/17 23:56:19;;;;;;;5.78;4.43;;;;;;;18.76;53.55;102209.06;4976322;28;20049;-69
2022/12/17 23:58:50;;;;;;;6.70;4.88;;;;;;;18.76;52.97;102203.69;4975988;28;20063;-69
